Accueil
METAR-TAF:

METAR-TAF

Aéroports :

Aérodrome de Koné

Koné, Nouvelle-Calédonie

latitude: 21-03-12S, longitude: 164-50-18E, altitude: 7 m

METAR: absent

Heure: 14:26 (03:26 UTC)

Prévision

Le bulletin a été fait il y a 4 heures et 26 minutes, à 23:00 UTC
Prévision valable du 11 à 00 UTC au 11 à 24 UTC
Vent 6 kt de ouest/sud-ouest
Visibilité 10 km ou plus
Quelques nuages à une hauteur de 2000 ft
Nuages épars à une hauteur de 4500 ft

TAF: NWWD 102300Z 1100/1124 24006KT 9999 FEW020 SCT045

Observations et prévisions météorologiques de plus de 4000 aéroports (messages METAR et TAF).

Les stations disponibles sont représentées par des disques jaunes et rouges sur la carte.

Passer la souris dessus pour voir le nom de la station.

Cliquer dessus pour voir les observations et prévisions météorologiques.

Pour changer de carte: cliquez sur les boutons verts avec une croix noire pour zoomer, sur le bouton vert avec un tiret pour effectuer un zoom arrière, ou sur les flèches vertes pour les cartes adjacentes.


METAR-TAF: